createdAt,value
2023-04-26T00:00:00.326Z,8.19
2023-04-26T00:05:02.518Z,8.05
2023-04-26T00:07:30.802Z,7.95
2023-04-26T00:09:57.431Z,7.77
2023-04-26T00:12:24.126Z,7.89
2023-04-26T00:14:51.125Z,7.91
2023-04-26T00:17:17.829Z,7.91
2023-04-26T00:19:45.410Z,7.88
2023-04-26T00:22:12.117Z,7.79
2023-04-26T00:24:38.767Z,7.93
2023-04-26T00:27:09.355Z,7.79
2023-04-26T00:29:37.421Z,7.90
2023-04-26T00:32:04.347Z,7.93
2023-04-26T00:34:35.552Z,8.10
2023-04-26T00:37:03.153Z,7.94
2023-04-26T00:39:29.923Z,7.87
2023-04-26T00:41:57.264Z,7.89
2023-04-26T00:44:24.002Z,7.89
2023-04-26T00:46:53.026Z,7.80
2023-04-26T00:49:23.048Z,7.62
2023-04-26T00:51:51.975Z,7.48
2023-04-26T00:54:20.326Z,7.43
2023-04-26T00:56:47.356Z,7.36
2023-04-26T00:59:13.974Z,7.35
2023-04-26T01:01:42.667Z,7.24
2023-04-26T01:04:09.602Z,7.00
2023-04-26T01:06:38.709Z,6.96
2023-04-26T01:09:11.244Z,6.99
2023-04-26T01:11:38.863Z,6.85
2023-04-26T01:14:06.277Z,6.87
2023-04-26T01:16:33.391Z,6.68
2023-04-26T01:19:08.206Z,6.82
2023-04-26T01:21:34.857Z,6.68
2023-04-26T01:24:01.607Z,6.76
2023-04-26T01:26:28.213Z,6.80
2023-04-26T01:28:54.973Z,6.73
2023-04-26T01:31:21.924Z,6.57
2023-04-26T01:33:48.596Z,6.84
2023-04-26T01:36:15.327Z,6.62
2023-04-26T01:38:42.224Z,6.57
2023-04-26T01:41:08.930Z,6.68
2023-04-26T01:43:35.611Z,6.56
2023-04-26T01:46:02.384Z,6.41
2023-04-26T01:48:29.017Z,6.41
2023-04-26T01:50:55.704Z,6.33
2023-04-26T01:53:22.359Z,6.32
2023-04-26T01:55:48.986Z,6.28
2023-04-26T01:58:15.619Z,6.34
2023-04-26T02:00:42.208Z,6.35
2023-04-26T02:03:08.941Z,6.61
2023-04-26T02:05:35.640Z,6.52
2023-04-26T02:08:02.412Z,6.47
2023-04-26T02:10:29.124Z,6.56
2023-04-26T02:12:55.762Z,6.49
2023-04-26T02:15:22.365Z,6.49
2023-04-26T02:17:49.891Z,6.69
2023-04-26T02:20:16.799Z,6.93
2023-04-26T02:22:43.597Z,6.97
2023-04-26T02:25:10.326Z,6.83
2023-04-26T02:27:37.286Z,6.59
2023-04-26T02:30:04.803Z,6.54
2023-04-26T02:32:31.921Z,6.76
2023-04-26T02:34:58.580Z,6.78
2023-04-26T02:37:25.565Z,6.44
2023-04-26T02:39:52.241Z,6.31
2023-04-26T02:42:19.017Z,6.31
2023-04-26T02:44:45.838Z,6.45
2023-04-26T02:47:12.556Z,6.55
2023-04-26T02:49:39.172Z,6.51
2023-04-26T02:52:05.831Z,6.53
2023-04-26T02:54:32.541Z,6.69
2023-04-26T02:56:59.180Z,6.61
2023-04-26T02:59:25.876Z,6.44
2023-04-26T03:01:52.514Z,6.27
2023-04-26T03:04:19.828Z,6.30
2023-04-26T03:06:46.669Z,6.43
2023-04-26T03:09:13.435Z,6.35
2023-04-26T03:11:40.106Z,6.34
2023-04-26T03:14:06.872Z,6.39
2023-04-26T03:16:41.502Z,6.30
2023-04-26T03:19:08.473Z,6.25
2023-04-26T03:21:35.170Z,6.35
2023-04-26T03:24:02.118Z,6.28
2023-04-26T03:26:28.787Z,6.34
2023-04-26T03:28:56.033Z,6.06
2023-04-26T03:31:23.967Z,6.00
2023-04-26T03:33:50.798Z,6.23
2023-04-26T03:36:17.578Z,6.20
2023-04-26T03:38:44.305Z,6.10
2023-04-26T03:41:11.068Z,6.00
2023-04-26T03:43:37.718Z,5.97
2023-04-26T03:46:04.813Z,5.84
2023-04-26T03:48:31.549Z,6.15
2023-04-26T03:50:58.179Z,6.06
2023-04-26T03:53:24.831Z,5.94
2023-04-26T03:55:51.562Z,5.92
2023-04-26T04:01:01.117Z,5.63
2023-04-26T04:06:01.498Z,5.65
2023-04-26T04:13:30.811Z,5.24
2023-04-26T04:21:12.518Z,5.34
2023-04-26T04:31:25.275Z,5.37
2023-04-26T04:36:29.765Z,5.26
2023-04-26T04:38:56.416Z,5.32
2023-04-26T04:41:23.787Z,5.27
2023-04-26T04:43:51.188Z,5.07
2023-04-26T04:46:17.894Z,5.09
2023-04-26T04:48:44.624Z,5.27
2023-04-26T04:53:43.466Z,5.22
2023-04-26T04:58:41.604Z,5.56
2023-04-26T05:03:39.784Z,5.58
2023-04-26T05:06:07.019Z,5.71
2023-04-26T05:08:33.713Z,5.80
2023-04-26T05:11:00.811Z,5.75
2023-04-26T05:13:27.453Z,5.80
2023-04-26T05:18:31.526Z,6.18
2023-04-26T05:20:58.358Z,6.27
2023-04-26T05:26:05.318Z,6.42
2023-04-26T05:28:32.434Z,6.46
2023-04-26T05:30:59.782Z,6.41
2023-04-26T05:33:26.397Z,6.56
2023-04-26T05:38:25.896Z,6.70
2023-04-26T05:40:52.559Z,6.69
2023-04-26T05:43:19.226Z,6.95
2023-04-26T05:45:56.374Z,6.72
2023-04-26T05:48:24.970Z,6.70
2023-04-26T05:50:52.456Z,6.84
2023-04-26T05:53:19.909Z,6.81
2023-04-26T05:55:46.785Z,7.00
2023-04-26T05:58:13.687Z,7.15
2023-04-26T06:05:51.797Z,7.41
2023-04-26T06:08:18.591Z,7.50
2023-04-26T06:10:47.128Z,7.62
2023-04-26T06:13:13.794Z,7.91
2023-04-26T06:15:40.458Z,7.97
2023-04-26T06:18:07.450Z,8.12
2023-04-26T06:20:34.196Z,8.33
2023-04-26T06:28:09.463Z,8.67
2023-04-26T06:30:36.411Z,8.74
2023-04-26T06:33:03.159Z,8.77
2023-04-26T06:35:29.816Z,8.83
2023-04-26T06:40:34.077Z,9.11
2023-04-26T06:43:00.802Z,9.19
2023-04-26T06:48:00.955Z,9.59
2023-04-26T06:52:59.308Z,9.62
2023-04-26T06:57:59.296Z,9.70
2023-04-26T07:00:26.135Z,9.84
2023-04-26T07:02:52.906Z,9.94
2023-04-26T07:05:19.765Z,10.07
2023-04-26T07:07:46.676Z,9.99
2023-04-26T07:10:14.299Z,10.09
2023-04-26T07:12:41.133Z,10.34
2023-04-26T07:17:47.014Z,10.35
2023-04-26T07:20:15.827Z,10.38
2023-04-26T07:22:42.486Z,10.58
2023-04-26T07:25:09.353Z,11.02
2023-04-26T07:27:36.083Z,11.06
2023-04-26T07:30:02.880Z,11.24
2023-04-26T07:32:29.811Z,11.52
2023-04-26T07:40:00.194Z,11.58
2023-04-26T07:42:26.915Z,12.03
2023-04-26T07:44:53.537Z,11.38
2023-04-26T07:47:20.105Z,11.52
2023-04-26T07:49:47.846Z,11.56
2023-04-26T07:52:14.766Z,11.37
2023-04-26T07:54:41.385Z,10.80
2023-04-26T08:07:22.210Z,12.20
2023-04-26T08:09:49.373Z,12.25
2023-04-26T08:20:06.487Z,11.20
2023-04-26T08:22:33.153Z,11.27
2023-04-26T08:24:59.839Z,10.76
2023-04-26T08:27:26.562Z,10.75
2023-04-26T08:29:53.588Z,10.67
2023-04-26T08:32:20.385Z,10.67
2023-04-26T08:34:47.044Z,10.53
2023-04-26T08:39:45.544Z,10.39
2023-04-26T08:42:15.336Z,10.39
2023-04-26T08:44:43.421Z,10.09
2023-04-26T08:47:20.267Z,9.75
2023-04-26T08:52:30.654Z,10.37
2023-04-26T08:57:37.442Z,10.57
2023-04-26T09:00:16.116Z,10.70
2023-04-26T09:02:47.814Z,10.91
2023-04-26T09:07:48.246Z,11.34
2023-04-26T09:10:20.098Z,11.61
2023-04-26T09:12:47.151Z,11.93
2023-04-26T09:15:15.762Z,12.13
2023-04-26T09:17:42.527Z,12.17
2023-04-26T09:20:26.467Z,12.60
2023-04-26T09:23:07.590Z,12.74
2023-04-26T09:25:35.196Z,13.11
2023-04-26T09:28:04.030Z,13.36
2023-04-26T09:33:16.486Z,13.13
2023-04-26T09:38:18.054Z,12.67
2023-04-26T09:40:51.195Z,11.65
2023-04-26T09:43:18.804Z,12.34
2023-04-26T09:48:30.916Z,12.82
2023-04-26T09:50:59.014Z,12.93
2023-04-26T09:56:15.143Z,13.93
2023-04-26T09:58:47.791Z,13.87
2023-04-26T10:03:57.163Z,13.64
2023-04-26T10:06:25.246Z,13.48
2023-04-26T10:08:52.123Z,13.09
2023-04-26T10:11:19.106Z,13.15
2023-04-26T10:13:45.864Z,12.95
2023-04-26T10:18:47.451Z,12.87
2023-04-26T10:21:24.662Z,12.82
2023-04-26T10:23:51.731Z,12.68
2023-04-26T10:27:04.481Z,12.88
2023-04-26T10:29:56.691Z,12.96
2023-04-26T10:32:24.379Z,12.75
2023-04-26T10:35:12.519Z,12.85
2023-04-26T10:38:18.748Z,13.10
2023-04-26T10:40:46.356Z,13.44
2023-04-26T10:43:15.627Z,13.80
2023-04-26T10:48:19.834Z,14.27
2023-04-26T10:53:35.865Z,15.05
2023-04-26T10:56:02.521Z,15.11
2023-04-26T10:58:34.231Z,14.81
2023-04-26T11:01:17.618Z,15.09
2023-04-26T11:06:51.386Z,14.96
2023-04-26T11:09:37.989Z,15.13
2023-04-26T11:12:11.267Z,14.60
2023-04-26T11:17:16.546Z,14.65
2023-04-26T11:19:43.327Z,14.43
2023-04-26T11:22:10.047Z,14.71
2023-04-26T11:29:47.087Z,14.19
2023-04-26T11:32:14.618Z,13.82
2023-04-26T11:39:54.200Z,14.25
2023-04-26T11:42:25.366Z,14.72
2023-04-26T11:44:52.644Z,15.16
2023-04-26T11:47:20.081Z,15.25
2023-04-26T11:55:06.050Z,15.18
2023-04-26T11:57:33.621Z,15.55
2023-04-26T12:00:11.482Z,15.51
2023-04-26T12:02:38.643Z,15.52
2023-04-26T12:05:06.147Z,15.53
2023-04-26T12:07:36.387Z,15.95
2023-04-26T12:12:52.345Z,16.53
2023-04-26T12:15:22.837Z,16.42
2023-04-26T12:25:42.166Z,16.47
2023-04-26T12:28:14.015Z,16.41
2023-04-26T12:35:50.595Z,17.04
2023-04-26T12:38:19.116Z,17.25
2023-04-26T12:40:46.168Z,17.36
2023-04-26T12:43:13.155Z,17.34
2023-04-26T12:45:39.838Z,17.37
2023-04-26T12:48:06.911Z,16.63
2023-04-26T12:50:33.837Z,16.13
2023-04-26T12:53:00.655Z,15.83
2023-04-26T12:55:28.204Z,15.82
2023-04-26T13:00:27.418Z,16.29
2023-04-26T13:02:54.343Z,16.53
2023-04-26T13:05:22.297Z,16.38
2023-04-26T13:07:49.058Z,16.29
2023-04-26T13:10:15.740Z,16.25
2023-04-26T13:12:42.549Z,15.90
2023-04-26T13:15:10.087Z,15.50
2023-04-26T13:17:38.206Z,15.79
2023-04-26T13:20:06.879Z,15.46
2023-04-26T13:22:35.116Z,15.47
2023-04-26T13:25:01.903Z,15.78
2023-04-26T13:27:31.154Z,15.96
2023-04-26T13:29:58.706Z,15.63
2023-04-26T13:35:04.490Z,15.53
2023-04-26T13:37:31.967Z,15.56
2023-04-26T13:39:58.898Z,15.31
2023-04-26T13:42:26.052Z,15.09
2023-04-26T13:44:52.714Z,15.08
2023-04-26T13:47:19.498Z,15.05
2023-04-26T13:49:46.194Z,15.40
2023-04-26T13:52:12.931Z,15.58
2023-04-26T13:54:42.279Z,15.89
2023-04-26T13:57:08.950Z,15.81
2023-04-26T13:59:35.792Z,15.84
2023-04-26T14:02:02.453Z,15.55
2023-04-26T14:04:29.306Z,15.51
2023-04-26T14:06:56.268Z,15.46
2023-04-26T14:09:22.932Z,15.50
2023-04-26T14:12:00.552Z,15.57
2023-04-26T14:14:34.701Z,15.42
2023-04-26T14:17:01.883Z,15.17
2023-04-26T14:19:28.629Z,15.36
2023-04-26T14:21:55.332Z,15.65
2023-04-26T14:26:53.206Z,15.40
2023-04-26T14:29:19.854Z,15.34
2023-04-26T14:31:46.743Z,15.50
2023-04-26T14:34:13.653Z,15.41
2023-04-26T14:36:40.335Z,15.77
2023-04-26T14:39:07.576Z,15.89
2023-04-26T14:41:34.226Z,15.73
2023-04-26T14:44:00.944Z,15.96
2023-04-26T14:46:27.662Z,16.05
2023-04-26T14:48:55.474Z,16.05
2023-04-26T14:53:53.805Z,15.78
2023-04-26T14:56:20.463Z,16.01
2023-04-26T14:58:47.672Z,15.63
2023-04-26T15:01:14.509Z,15.63
2023-04-26T15:06:19.550Z,15.20
2023-04-26T15:08:46.489Z,15.21
2023-04-26T15:11:13.143Z,15.25
2023-04-26T15:13:39.767Z,15.40
2023-04-26T15:16:08.229Z,15.63
2023-04-26T15:18:35.036Z,15.83
2023-04-26T15:26:10.444Z,15.78
2023-04-26T15:28:37.394Z,15.85
2023-04-26T15:31:05.770Z,15.49
2023-04-26T15:33:32.618Z,14.96
2023-04-26T15:35:59.280Z,14.73
2023-04-26T15:38:26.249Z,15.07
2023-04-26T15:40:54.079Z,15.21
2023-04-26T15:43:20.908Z,15.16
2023-04-26T15:45:49.172Z,15.10
2023-04-26T15:48:16.126Z,15.21
2023-04-26T15:50:42.759Z,15.29
2023-04-26T15:53:09.522Z,15.34
2023-04-26T15:55:36.503Z,15.28
2023-04-26T15:58:03.242Z,15.14
2023-04-26T16:00:31.806Z,15.10
2023-04-26T16:02:58.560Z,14.90
2023-04-26T16:05:25.703Z,14.84
2023-04-26T16:07:52.458Z,14.65
2023-04-26T16:10:19.197Z,14.51
2023-04-26T16:12:45.888Z,14.56
2023-04-26T16:15:12.635Z,14.53
2023-04-26T16:17:39.559Z,14.53
2023-04-26T16:20:07.346Z,14.48
2023-04-26T16:22:35.322Z,14.53
2023-04-26T16:25:03.271Z,14.52
2023-04-26T16:27:29.977Z,14.42
2023-04-26T16:35:12.237Z,14.28
2023-04-26T16:40:18.385Z,13.95
2023-04-26T16:42:45.066Z,13.97
2023-04-26T16:45:16.553Z,13.78
2023-04-26T16:47:43.488Z,13.78
2023-04-26T16:52:47.644Z,13.61
2023-04-26T16:55:14.299Z,13.42
2023-04-26T16:57:41.032Z,13.37
2023-04-26T17:02:45.370Z,13.39
2023-04-26T17:05:12.369Z,13.29
2023-04-26T17:07:39.117Z,13.20
2023-04-26T17:10:06.161Z,13.19
2023-04-26T17:12:32.987Z,13.16
2023-04-26T17:15:01.166Z,13.15
2023-04-26T17:17:28.955Z,13.10
2023-04-26T17:19:55.588Z,13.03
2023-04-26T17:22:22.278Z,13.07
2023-04-26T17:24:48.908Z,13.11
2023-04-26T17:27:15.790Z,12.82
2023-04-26T17:29:44.360Z,12.79
2023-04-26T17:32:11.107Z,12.85
2023-04-26T17:34:38.941Z,12.69
2023-04-26T17:37:05.645Z,12.63
2023-04-26T17:39:32.350Z,12.54
2023-04-26T17:41:59.092Z,12.55
2023-04-26T17:44:25.797Z,12.48
2023-04-26T17:46:52.466Z,12.37
2023-04-26T17:49:19.185Z,12.43
2023-04-26T17:51:45.812Z,12.46
2023-04-26T17:54:13.200Z,12.44
2023-04-26T17:56:40.229Z,12.36
2023-04-26T17:59:06.972Z,12.28
2023-04-26T18:04:07.717Z,12.19
2023-04-26T18:06:34.534Z,12.17
2023-04-26T18:09:01.165Z,12.18
2023-04-26T18:11:28.001Z,12.12
2023-04-26T18:13:54.695Z,12.12
2023-04-26T18:16:21.373Z,12.05
2023-04-26T18:18:48.103Z,11.96
2023-04-26T18:21:14.862Z,11.77
2023-04-26T18:23:42.442Z,11.69
2023-04-26T18:26:09.929Z,11.82
2023-04-26T18:28:36.603Z,11.86
2023-04-26T18:31:03.341Z,11.81
2023-04-26T18:33:30.151Z,11.81
2023-04-26T18:35:56.896Z,11.82
2023-04-26T18:38:23.535Z,11.60
2023-04-26T18:40:50.185Z,11.56
2023-04-26T18:43:17.033Z,11.44
2023-04-26T18:45:43.808Z,11.47
2023-04-26T18:48:12.170Z,11.37
2023-04-26T18:50:38.833Z,11.43
2023-04-26T18:53:05.515Z,11.26
2023-04-26T18:58:10.649Z,11.10
2023-04-26T19:00:37.514Z,10.92
2023-04-26T19:03:04.399Z,10.88
2023-04-26T19:05:31.166Z,10.97
2023-04-26T19:07:57.917Z,11.00
2023-04-26T19:10:24.628Z,11.07
2023-04-26T19:12:51.604Z,10.86
2023-04-26T19:15:18.542Z,10.76
2023-04-26T19:17:45.892Z,10.72
2023-04-26T19:20:15.282Z,10.70
2023-04-26T19:22:42.123Z,10.68
2023-04-26T19:25:09.250Z,10.86
2023-04-26T19:30:13.879Z,10.80
2023-04-26T19:32:40.648Z,10.85
2023-04-26T19:40:12.207Z,10.90
2023-04-26T19:42:38.996Z,11.11
2023-04-26T19:45:06.544Z,10.91
2023-04-26T19:47:33.345Z,10.95
2023-04-26T19:50:00.022Z,10.94
2023-04-26T19:52:26.951Z,10.85
2023-04-26T19:54:54.486Z,10.83
2023-04-26T19:57:22.208Z,11.01
2023-04-26T19:59:48.934Z,11.02
2023-04-26T20:02:15.667Z,10.93
2023-04-26T20:04:43.120Z,10.92
2023-04-26T20:07:10.219Z,10.93
2023-04-26T20:09:37.625Z,10.89
2023-04-26T20:17:19.828Z,10.84
2023-04-26T20:19:46.659Z,10.92
2023-04-26T20:22:13.359Z,10.77
2023-04-26T20:24:40.000Z,10.84
2023-04-26T20:27:06.750Z,10.71
2023-04-26T20:29:33.395Z,10.80
2023-04-26T20:32:00.095Z,10.80
2023-04-26T20:37:04.288Z,10.56
2023-04-26T20:39:33.906Z,10.55
2023-04-26T20:42:01.652Z,10.57
2023-04-26T20:44:28.379Z,10.56
2023-04-26T20:46:55.082Z,10.77
2023-04-26T20:49:21.818Z,10.80
2023-04-26T20:51:48.486Z,10.77
2023-04-26T20:54:15.202Z,10.43
2023-04-26T20:56:41.843Z,10.37
2023-04-26T20:59:08.719Z,10.18
2023-04-26T21:01:35.627Z,10.29
2023-04-26T21:04:02.337Z,10.33
2023-04-26T21:06:29.128Z,10.37
2023-04-26T21:08:55.739Z,10.26
2023-04-26T21:11:22.381Z,10.34
2023-04-26T21:13:49.605Z,10.27
2023-04-26T21:16:16.471Z,10.22
2023-04-26T21:18:43.175Z,10.20
2023-04-26T21:21:09.800Z,10.31
2023-04-26T21:26:07.874Z,10.26
2023-04-26T21:28:34.584Z,10.29
2023-04-26T21:31:05.312Z,10.25
2023-04-26T21:33:33.349Z,10.39
2023-04-26T21:36:00.779Z,10.39
2023-04-26T21:38:27.500Z,10.46
2023-04-26T21:43:31.470Z,10.23
2023-04-26T21:48:35.864Z,10.26
2023-04-26T21:51:02.596Z,10.13
2023-04-26T21:53:29.250Z,10.08
2023-04-26T21:55:56.479Z,9.99
2023-04-26T21:58:23.703Z,9.88
2023-04-26T22:00:50.887Z,9.77
2023-04-26T22:03:18.774Z,9.71
2023-04-26T22:05:45.843Z,9.77
2023-04-26T22:08:12.476Z,9.65
2023-04-26T22:10:39.183Z,9.74
2023-04-26T22:15:37.472Z,9.70
2023-04-26T22:18:04.342Z,9.76
2023-04-26T22:20:31.061Z,9.92
2023-04-26T22:22:57.827Z,10.00
2023-04-26T22:25:24.686Z,9.93
2023-04-26T22:27:51.489Z,9.94
2023-04-26T22:30:25.386Z,10.00
2023-04-26T22:32:55.599Z,9.99
2023-04-26T22:35:23.457Z,9.96
2023-04-26T22:37:50.141Z,9.89
2023-04-26T22:40:17.310Z,9.92
2023-04-26T22:42:44.807Z,10.03
2023-04-26T22:45:12.724Z,9.86
2023-04-26T22:47:40.184Z,10.03
2023-04-26T22:52:40.744Z,10.00
2023-04-26T22:57:46.746Z,9.68
2023-04-26T23:00:14.840Z,9.80
2023-04-26T23:02:42.137Z,9.90
2023-04-26T23:05:10.426Z,9.80
2023-04-26T23:07:38.361Z,9.71
2023-04-26T23:10:05.918Z,9.73
2023-04-26T23:12:32.648Z,9.71
2023-04-26T23:14:59.631Z,9.78
2023-04-26T23:17:26.865Z,9.62
2023-04-26T23:19:53.934Z,9.55
2023-04-26T23:22:20.673Z,9.53
2023-04-26T23:24:47.401Z,9.54
2023-04-26T23:27:14.160Z,9.60
2023-04-26T23:29:40.996Z,9.51
2023-04-26T23:32:07.636Z,9.54
2023-04-26T23:34:34.291Z,9.63
2023-04-26T23:37:07.926Z,9.61
2023-04-26T23:39:35.832Z,9.53
2023-04-26T23:42:02.628Z,9.62
2023-04-26T23:44:29.524Z,9.49
2023-04-26T23:46:56.297Z,9.48
2023-04-26T23:49:23.049Z,9.47
2023-04-26T23:51:49.670Z,9.64
2023-04-26T23:54:16.717Z,9.57
2023-04-26T23:56:43.332Z,9.43
2023-04-26T23:59:09.968Z,9.27
